Cecil, Wisconsin
Current Conditions -  °F | °C
As of 2:35 PM on Friday 21 Nov 2014 (Local Time) from KEZS Reporting Station
Clear Clear  
Wind Chill: 20°   Ceiling: Unl
Heat Index: 28°   Visibility: 10mi
Dew Point:   Wind: 7mph
Humidity: 43%   Direction: 210°SSW
Pressure: 30.23"   Gusts: NA
Location:  44.81°N, 88.45°W
Report Text: KEZS 212035Z AUTO 21006KT 10SM CLR M02/M13 A3023 RMK AO2 T10251135
Loading
Personal Weather Stations






























Interactive Weather Map New forecast layout! Learn more

10-Day Weather Forecast

Advertisements
Track Severe Weather on mobile